createdAt,value
2023-03-02T00:00:33.963Z,102523.84
2023-03-02T00:05:36.660Z,102523.69
2023-03-02T00:10:38.804Z,102525.44
2023-03-02T00:15:40.589Z,102523.69
2023-03-02T00:20:42.217Z,102515.91
2023-03-02T00:25:43.876Z,102522.41
2023-03-02T00:30:45.551Z,102520.19
2023-03-02T00:35:47.223Z,102527.00
2023-03-02T00:40:49.456Z,102525.03
2023-03-02T00:45:51.010Z,102513.94
2023-03-02T00:50:52.644Z,102517.66
2023-03-02T00:55:55.405Z,102521.22
2023-03-02T01:00:58.998Z,102506.59
2023-03-02T01:06:04.829Z,102511.03
2023-03-02T01:11:16.308Z,102513.75
2023-03-02T01:16:18.179Z,102509.19
2023-03-02T01:21:19.898Z,102505.59
2023-03-02T01:26:21.523Z,102510.25
2023-03-02T01:31:23.526Z,102512.72
2023-03-02T01:36:25.235Z,102508.75
2023-03-02T01:41:27.567Z,102509.38
2023-03-02T01:46:35.198Z,102504.72
2023-03-02T01:51:43.827Z,102496.66
2023-03-02T01:56:46.505Z,102491.56
2023-03-02T02:01:56.219Z,102490.09
2023-03-02T02:07:03.376Z,102495.38
2023-03-02T02:12:05.928Z,102487.47
2023-03-02T02:17:09.236Z,102493.69
2023-03-02T02:22:13.495Z,102486.31
2023-03-02T02:27:15.442Z,102485.19
2023-03-02T02:32:26.447Z,102486.31
2023-03-02T02:37:51.677Z,102490.00
2023-03-02T02:42:54.609Z,102470.97
2023-03-02T02:47:57.452Z,102480.59
2023-03-02T02:53:05.526Z,102466.47
2023-03-02T02:58:17.890Z,102476.41
2023-03-02T03:03:30.709Z,102463.66
2023-03-02T03:08:49.985Z,102464.41
2023-03-02T03:14:04.575Z,102452.59
2023-03-02T03:19:13.130Z,102453.25
2023-03-02T03:24:15.452Z,102458.84
2023-03-02T03:29:18.560Z,102456.25
2023-03-02T03:34:23.159Z,102454.22
2023-03-02T03:39:25.226Z,102450.50
2023-03-02T03:44:27.062Z,102456.91
2023-03-02T03:49:29.434Z,102448.16
2023-03-02T03:54:31.832Z,102447.00
2023-03-02T03:59:34.157Z,102442.75
2023-03-02T04:04:37.896Z,102455.78
2023-03-02T04:09:46.868Z,102454.31
2023-03-02T04:14:50.171Z,102457.41
2023-03-02T04:19:52.078Z,102458.50
2023-03-02T04:24:54.572Z,102448.19
2023-03-02T04:29:56.398Z,102453.94
2023-03-02T04:34:58.648Z,102454.97
2023-03-02T04:40:01.769Z,102458.22
2023-03-02T04:45:03.586Z,102455.59
2023-03-02T04:50:05.978Z,102456.94
2023-03-02T04:55:08.002Z,102455.97
2023-03-02T05:00:10.347Z,102444.50
2023-03-02T05:05:19.542Z,102447.91
2023-03-02T05:10:22.978Z,102434.97
2023-03-02T05:15:26.520Z,102434.56
2023-03-02T05:20:30.434Z,102432.94
2023-03-02T05:25:35.207Z,102435.97
2023-03-02T05:30:37.811Z,102438.75
2023-03-02T05:35:40.218Z,102442.31
2023-03-02T05:40:45.326Z,102442.91
2023-03-02T05:45:47.442Z,102445.13
2023-03-02T05:50:49.103Z,102447.22
2023-03-02T05:55:51.217Z,102448.19
2023-03-02T06:00:52.886Z,102457.34
2023-03-02T06:05:54.488Z,102458.47
2023-03-02T06:10:57.134Z,102451.97
2023-03-02T06:15:58.799Z,102456.53
2023-03-02T06:21:01.487Z,102446.63
2023-03-02T06:26:08.975Z,102454.47
2023-03-02T06:31:10.567Z,102460.06
2023-03-02T06:36:12.748Z,102465.75
2023-03-02T06:41:15.079Z,102472.13
2023-03-02T06:46:16.863Z,102477.75
2023-03-02T06:51:18.763Z,102481.44
2023-03-02T06:56:20.398Z,102485.31
2023-03-02T07:01:22.161Z,102485.72
2023-03-02T07:06:23.764Z,102495.63
2023-03-02T07:11:25.460Z,102492.53
2023-03-02T07:16:27.763Z,102486.88
2023-03-02T07:21:29.465Z,102483.03
2023-03-02T07:26:31.127Z,102478.03
2023-03-02T07:31:32.959Z,102485.16
2023-03-02T07:36:34.803Z,102479.22
2023-03-02T07:41:36.431Z,102486.28
2023-03-02T07:46:38.512Z,102486.47
2023-03-02T07:51:40.220Z,102485.78
2023-03-02T07:56:41.904Z,102494.63
2023-03-02T08:01:43.713Z,102487.72
2023-03-02T08:06:45.410Z,102490.09
2023-03-02T08:11:47.955Z,102480.38
2023-03-02T08:16:50.102Z,102481.38
2023-03-02T08:21:52.224Z,102480.78
2023-03-02T08:26:54.472Z,102482.22
2023-03-02T08:31:56.551Z,102483.31
2023-03-02T08:36:58.262Z,102480.28
2023-03-02T08:41:59.863Z,102476.72
2023-03-02T08:47:01.491Z,102470.50
2023-03-02T08:52:03.653Z,102475.69
2023-03-02T08:57:05.349Z,102476.84
2023-03-02T09:02:07.570Z,102477.47
2023-03-02T09:07:09.620Z,102475.44
2023-03-02T09:12:11.191Z,102480.22
2023-03-02T09:17:15.550Z,102470.44
2023-03-02T09:22:17.580Z,102471.75
2023-03-02T09:27:19.239Z,102473.72
2023-03-02T09:32:21.014Z,102479.09
2023-03-02T09:37:22.750Z,102480.97
2023-03-02T09:42:32.113Z,102470.84
2023-03-02T09:48:01.764Z,102475.19
2023-03-02T09:53:06.178Z,102470.03
2023-03-02T09:58:16.178Z,102479.22
2023-03-02T10:03:22.047Z,102471.94
2023-03-02T10:08:26.754Z,102463.81
2023-03-02T10:13:42.403Z,102465.97
2023-03-02T10:18:49.648Z,102466.16
2023-03-02T10:24:15.927Z,102471.00
2023-03-02T10:29:20.532Z,102467.25
2023-03-02T10:34:27.696Z,102473.50
2023-03-02T10:39:29.361Z,102469.44
2023-03-02T10:44:38.145Z,102459.94
2023-03-02T10:49:42.832Z,102465.81
2023-03-02T10:54:44.819Z,102454.75
2023-03-02T10:59:47.707Z,102463.78
2023-03-02T11:05:29.004Z,102461.00
2023-03-02T11:10:37.057Z,102458.72
2023-03-02T11:15:49.550Z,102457.06
2023-03-02T11:20:55.046Z,102461.69
2023-03-02T11:26:02.382Z,102467.63
2023-03-02T11:31:12.209Z,102463.22
2023-03-02T11:36:30.672Z,102463.75
2023-03-02T11:41:36.607Z,102447.09
2023-03-02T11:46:39.747Z,102440.78
2023-03-02T11:51:58.889Z,102435.50
2023-03-02T11:57:01.620Z,102431.25
2023-03-02T12:02:04.174Z,102437.97
2023-03-02T12:07:20.391Z,102435.97
2023-03-02T12:12:44.154Z,102440.41
2023-03-02T12:17:45.954Z,102430.00
2023-03-02T12:22:47.643Z,102433.66
2023-03-02T12:27:51.502Z,102427.66
2023-03-02T12:33:19.487Z,102414.72
2023-03-02T12:38:32.658Z,102413.16
2023-03-02T12:44:06.447Z,102417.69
2023-03-02T12:49:36.387Z,102417.16
2023-03-02T12:54:38.121Z,102409.38
2023-03-02T12:59:40.020Z,102404.97
2023-03-02T13:04:41.848Z,102396.56
2023-03-02T13:09:55.574Z,102391.47
2023-03-02T13:14:59.671Z,102390.34
2023-03-02T13:20:04.714Z,102388.13
2023-03-02T13:25:17.436Z,102374.75
2023-03-02T13:30:31.370Z,102361.63
2023-03-02T13:35:36.052Z,102354.81
2023-03-02T13:40:46.732Z,102352.38
2023-03-02T13:46:25.620Z,102345.22
2023-03-02T13:51:33.634Z,102338.75
2023-03-02T13:56:38.843Z,102345.47
2023-03-02T14:01:46.996Z,102334.84
2023-03-02T14:06:53.869Z,102331.72
2023-03-02T14:11:57.035Z,102317.41
2023-03-02T14:16:59.392Z,102318.16
2023-03-02T14:22:01.004Z,102313.66
2023-03-02T14:27:02.611Z,102315.75
2023-03-02T14:32:06.484Z,102316.09
2023-03-02T14:37:13.899Z,102320.38
2023-03-02T14:42:20.736Z,102322.34
2023-03-02T14:47:22.336Z,102314.41
2023-03-02T14:52:33.510Z,102303.00
2023-03-02T14:57:38.557Z,102305.91
2023-03-02T15:02:40.353Z,102300.94
2023-03-02T15:07:42.468Z,102298.41
2023-03-02T15:12:44.408Z,102294.94
2023-03-02T15:17:46.168Z,102287.41
2023-03-02T15:22:47.777Z,102289.25
2023-03-02T15:27:50.402Z,102292.47
2023-03-02T15:32:53.236Z,102289.72
2023-03-02T15:37:58.180Z,102285.44
2023-03-02T15:42:59.787Z,102294.41
2023-03-02T15:48:01.604Z,102298.81
2023-03-02T15:53:03.580Z,102298.31
2023-03-02T15:58:08.213Z,102313.06
2023-03-02T16:03:10.006Z,102308.59
2023-03-02T16:08:11.856Z,102297.25
2023-03-02T16:13:13.439Z,102309.72
2023-03-02T16:18:15.061Z,102313.66
2023-03-02T16:23:16.733Z,102303.59
2023-03-02T16:28:19.160Z,102312.16
2023-03-02T16:33:20.813Z,102313.06
2023-03-02T16:38:22.460Z,102323.38
2023-03-02T16:43:24.516Z,102328.25
2023-03-02T16:48:26.172Z,102328.00
2023-03-02T16:53:27.926Z,102333.47
2023-03-02T16:58:29.663Z,102331.25
2023-03-02T17:03:31.666Z,102331.97
2023-03-02T17:08:33.652Z,102337.34
2023-03-02T17:13:35.464Z,102348.91
2023-03-02T17:18:37.070Z,102353.78
2023-03-02T17:23:38.867Z,102357.38
2023-03-02T17:28:40.558Z,102363.09
2023-03-02T17:33:42.285Z,102364.09
2023-03-02T17:38:43.969Z,102364.56
2023-03-02T17:43:45.956Z,102374.22
2023-03-02T17:48:50.800Z,102370.03
2023-03-02T17:53:55.025Z,102388.19
2023-03-02T17:58:59.960Z,102387.81
2023-03-02T18:04:01.705Z,102400.63
2023-03-02T18:09:03.501Z,102411.63
2023-03-02T18:14:05.280Z,102416.06
2023-03-02T18:19:06.915Z,102422.97
2023-03-02T18:24:09.397Z,102421.44
2023-03-02T18:29:11.081Z,102429.38
2023-03-02T18:34:12.646Z,102427.34
2023-03-02T18:39:14.463Z,102423.25
2023-03-02T18:44:16.266Z,102428.31
2023-03-02T18:49:17.914Z,102428.88
2023-03-02T18:54:19.478Z,102438.94
2023-03-02T18:59:21.151Z,102428.78
2023-03-02T19:04:26.399Z,102437.19
2023-03-02T19:09:28.008Z,102448.56
2023-03-02T19:14:29.684Z,102450.44
2023-03-02T19:19:31.874Z,102457.13
2023-03-02T19:24:33.700Z,102454.56
2023-03-02T19:29:35.324Z,102452.59
2023-03-02T19:34:37.885Z,102467.22
2023-03-02T19:39:39.754Z,102469.63
2023-03-02T19:44:41.410Z,102469.22
2023-03-02T19:49:43.031Z,102460.66
2023-03-02T19:54:44.725Z,102473.81
2023-03-02T19:59:46.388Z,102471.41
2023-03-02T20:04:50.927Z,102474.25
2023-03-02T20:09:52.605Z,102471.84
2023-03-02T20:14:55.034Z,102480.47
2023-03-02T20:19:57.987Z,102473.44
2023-03-02T20:24:59.611Z,102472.78
2023-03-02T20:30:01.453Z,102467.41
2023-03-02T20:35:03.508Z,102475.09
2023-03-02T20:40:07.148Z,102476.94
2023-03-02T20:45:09.742Z,102467.44
2023-03-02T20:50:15.149Z,102478.06
2023-03-02T20:55:17.086Z,102476.47
2023-03-02T21:00:23.348Z,102483.56
2023-03-02T21:05:27.524Z,102480.47
2023-03-02T21:10:33.838Z,102480.38
2023-03-02T21:15:35.850Z,102492.97
2023-03-02T21:20:39.150Z,102487.97
2023-03-02T21:25:42.407Z,102488.16
2023-03-02T21:30:44.285Z,102490.69
2023-03-02T21:35:46.518Z,102485.34
2023-03-02T21:40:48.205Z,102488.97
2023-03-02T21:45:50.077Z,102490.16
2023-03-02T21:50:51.692Z,102482.50
2023-03-02T21:55:55.037Z,102500.75
2023-03-02T22:00:56.748Z,102494.19
2023-03-02T22:05:58.376Z,102489.28
2023-03-02T22:11:00.014Z,102488.28
2023-03-02T22:16:16.788Z,102489.06
2023-03-02T22:21:30.758Z,102492.09
2023-03-02T22:26:35.375Z,102485.09
2023-03-02T22:31:44.249Z,102494.34
2023-03-02T22:36:45.984Z,102486.84
2023-03-02T22:41:47.580Z,102492.75
2023-03-02T22:46:50.826Z,102489.91
2023-03-02T22:51:52.455Z,102495.16
2023-03-02T22:56:56.882Z,102486.19
2023-03-02T23:02:01.078Z,102502.41
2023-03-02T23:07:16.765Z,102488.38
2023-03-02T23:12:20.974Z,102488.16
2023-03-02T23:17:40.113Z,102487.69
2023-03-02T23:22:43.292Z,102483.78
2023-03-02T23:27:44.912Z,102487.94
2023-03-02T23:32:46.519Z,102489.25
2023-03-02T23:37:48.233Z,102495.13
2023-03-02T23:42:50.680Z,102481.56
2023-03-02T23:47:52.448Z,102487.19
2023-03-02T23:52:54.373Z,102482.75
2023-03-02T23:57:56.083Z,102479.34
